Nashville, Tennessee
Traffic Map
Current Weather Conditions
Nashville, Tennessee
Broken Clouds
Broken Clouds
80°
Feels Like: 81°
Wind Chill: 80° Ceiling: 25000
Heat Index: 81° Visibility: 10mi
Dew Point: 62° Wind: 7mph
Humidity: 54% Direction: 180° (S)
Pressure: 30.02in Gusts: 0mph
Raw Report DataKBNA 291853Z 18006KT 10SM SCT041 SCT055 BKN250 27/17 A3002 RMK AO2 SLP159 T02670167 $
Traffic Incident Summary
Active as of:
Severity:
Category:
InformationThere was an issue retrieving the traffic information for this location. Please try a different location or try again shortly.
Advertisements
Track Severe Weather on mobile